Conover, WI (54519)

1:38 PM CST on February 14, 2016 (GMT -0600)
Deer Skin Lake | | Change Station
CLOSE
Current Station
Personal Weather Station
Location: Eagle River, WI
Elevation: 1709 ft
Nearby Weather Stations

Elev 1709 ft 45.98 °N, 89.17 °W | Updated 9 seconds ago

Mostly Cloudy
Mostly Cloudy
20.5 °F
Feels Like 15 °F
N
4.2
Wind Variable Wind from ESE
Gusts 4.9 mph

Today
High -- | Low -- °F
--% Chance of Precip.
Yesterday
High -- | Low -- °F
Precip. -- in
Pressure 30.01 in
Visibility 7.0 miles
Clouds Clear
Windchill 15 °F
Dew Point -5 °F
Humidity 32%
Rainfall 0.00 in
Snow Depth Not available.
7:02 AM 5:21 PM
Waxing Crescent, 44% visible
METAR KLNL 141915Z AUTO 14012G19KT 7SM CLR M07/M21 A3001 RMK AO2 T10701208
Pressure 30.01 in
Visibility 7.0 miles
Clouds Clear
Windchill 15 °F
Dew Point -5 °F
Humidity 32%
Rainfall 0.00 in
Snow Depth Not available.
7:02 AM 5:21 PM
Waxing Crescent, 44% visible
METAR KLNL 141915Z AUTO 14012G19KT 7SM CLR M07/M21 A3001 RMK AO2 T10701208

10-Day Weather Forecast

Almanac

Astronomy

Feb. 14, 2016 Rise Set
Actual Time
Civil Twilight
Nautical Twilight
Astronomical Twilight
Moon
Length of Visible Light
Length of Day
Tomorrow will be .
, % of the Moon is Illuminated

Today's Extremes

State Highs State Lows

Community

WunderPhotos

Upload Photos

1,892,878 photos uploaded!

WunderBlog® & News

Nearby

Air Quality

  Air Quality AQ Index Pollutant
Not available.

Snow Depth

Station Depth Elevation

Earthquake Activity

City Distance Mag. Time & Date
Minimum magnitude displayed is 2.5.

Coastal Water Temperatures

Place Temperature

Stations

Nearby Weather Stations

Station Location Temp. Windchill Dew Point Humidity Wind Precip. Elev Updated Type
                   

Watches & Warnings

There are currently no watches in effect.